Time;durP1;ratioP1;P1;durP2;ratioP2;P2;SDS_P1;SDS_P2;PMS_P1;PMS_P2;Temp;Humidity;BMP_temperature;BMP_pressure;BME280_temperature;BME280_humidity;BME280_pressure;Samples;Min_cycle;Max_cycle;Signal;HPM_P1;HPM_P2
2022/05/20 00:00:48;;;;;;;14.07;9.10;;;16.30;99.90;;;;;;5071136;28;20264;-51
2022/05/20 00:03:17;;;;;;;14.20;8.77;;;16.30;99.90;;;;;;5071666;28;20212;-51
2022/05/20 00:05:45;;;;;;;13.25;8.80;;;16.30;99.90;;;;;;5070821;28;20267;-51
2022/05/20 00:08:13;;;;;;;25.95;10.32;;;16.30;99.90;;;;;;5072022;28;20239;-51
2022/05/20 00:10:43;;;;;;;37.33;10.93;;;16.30;99.90;;;;;;5071118;28;20640;-51
2022/05/20 00:13:11;;;;;;;24.80;10.85;;;16.40;99.90;;;;;;5071178;28;20213;-51
2022/05/20 00:15:39;;;;;;;19.95;8.88;;;16.40;99.90;;;;;;5071011;28;20583;-51
2022/05/20 00:18:07;;;;;;;24.80;9.30;;;16.40;99.90;;;;;;5071258;28;20225;-51
2022/05/20 00:20:35;;;;;;;18.42;10.27;;;16.40;99.90;;;;;;5070142;28;20233;-51
2022/05/20 00:23:04;;;;;;;27.17;10.40;;;16.50;99.90;;;;;;5070864;28;20312;-51
2022/05/20 00:25:48;;;;;;;24.50;11.88;;;16.40;99.90;;;;;;5071145;28;20208;-51
2022/05/20 00:28:20;;;;;;;21.67;11.35;;;16.40;99.90;;;;;;5070441;28;20244;-51
2022/05/20 00:30:50;;;;;;;30.40;13.20;;;16.50;99.90;;;;;;5070528;28;20311;-51
2022/05/20 00:33:18;;;;;;;21.00;11.45;;;16.50;99.90;;;;;;5055927;28;20239;-51
2022/05/20 00:35:46;;;;;;;21.80;10.27;;;16.50;99.90;;;;;;5051195;28;20293;-51
2022/05/20 00:38:15;;;;;;;29.70;11.70;;;16.50;99.90;;;;;;5050524;28;20649;-51
2022/05/20 00:40:43;;;;;;;19.17;10.90;;;16.50;99.90;;;;;;5055314;28;20230;-51
2022/05/20 00:43:14;;;;;;;21.02;10.98;;;16.60;99.90;;;;;;5081578;28;20197;-50
2022/05/20 00:45:45;;;;;;;19.80;10.90;;;16.60;99.90;;;;;;5091213;28;20208;-51
2022/05/20 00:48:14;;;;;;;18.75;11.57;;;16.60;99.90;;;;;;5091249;28;20234;-51
2022/05/20 00:50:47;;;;;;;32.92;12.18;;;16.70;99.90;;;;;;5074177;28;20224;-51
2022/05/20 00:53:20;;;;;;;24.58;11.25;;;16.60;99.90;;;;;;5070270;28;20208;-51
2022/05/20 00:55:48;;;;;;;17.63;10.20;;;16.70;99.90;;;;;;5050460;28;20213;-51
2022/05/20 00:58:21;;;;;;;18.63;11.00;;;16.60;99.90;;;;;;5050476;28;20710;-51
2022/05/20 01:00:52;;;;;;;29.90;13.18;;;16.60;99.90;;;;;;5050339;28;20229;-50
2022/05/20 01:03:24;;;;;;;65.35;14.75;;;16.60;99.90;;;;;;5050155;28;20212;-51
2022/05/20 01:05:54;;;;;;;55.85;15.15;;;16.60;99.90;;;;;;5050060;28;20237;-51
2022/05/20 01:08:25;;;;;;;52.95;16.35;;;16.60;99.90;;;;;;5050445;28;20229;-51
2022/05/20 01:10:53;;;;;;;38.47;15.18;;;16.60;99.90;;;;;;5070174;28;20257;-51
2022/05/20 01:13:25;;;;;;;25.67;14.80;;;16.60;99.90;;;;;;5069637;28;20277;-51
2022/05/20 01:15:56;;;;;;;78.40;17.15;;;16.70;99.90;;;;;;5070199;28;20239;-51
2022/05/20 01:18:25;;;;;;;52.22;16.08;;;16.70;99.90;;;;;;5070135;28;20232;-51
2022/05/20 01:20:56;;;;;;;49.28;17.55;;;16.70;99.90;;;;;;5069460;28;20323;-51
2022/05/20 01:23:28;;;;;;;33.53;15.18;;;16.70;99.90;;;;;;5069392;28;20240;-52
2022/05/20 01:25:58;;;;;;;50.83;16.75;;;16.70;99.90;;;;;;5069969;28;20228;-51
2022/05/20 01:28:28;;;;;;;84.45;18.83;;;16.70;99.90;;;;;;5069919;28;20239;-51
2022/05/20 01:30:59;;;;;;;205.13;23.85;;;16.70;99.90;;;;;;5069488;28;20229;-51
2022/05/20 01:33:31;;;;;;;77.15;18.98;;;16.70;99.90;;;;;;5069094;28;20670;-51
2022/05/20 01:36:00;;;;;;;117.55;18.55;;;16.80;99.90;;;;;;5070014;28;20193;-51
2022/05/20 01:38:30;;;;;;;113.90;18.30;;;16.80;99.90;;;;;;5069578;28;20256;-51
2022/05/20 01:41:03;;;;;;;112.50;17.13;;;16.80;99.90;;;;;;5069499;28;20751;-51
2022/05/20 01:43:49;;;;;;;135.43;15.80;;;16.70;99.90;;;;;;5069374;28;20278;-51
2022/05/20 01:46:28;;;;;;;128.00;18.83;;;16.70;99.90;;;;;;5069704;28;20193;-51
2022/05/20 01:49:07;;;;;;;105.20;15.63;;;16.70;99.90;;;;;;5069513;28;20211;-51
2022/05/20 01:51:43;;;;;;;79.55;16.58;;;16.70;99.90;;;;;;5069455;28;20311;-51
2022/05/20 01:54:21;;;;;;;53.75;15.38;;;16.80;99.90;;;;;;5063066;28;20201;-51
2022/05/20 01:56:54;;;;;;;186.40;18.67;;;16.80;99.90;;;;;;5049587;28;20206;-51
2022/05/20 01:59:26;;;;;;;138.35;19.50;;;16.80;99.90;;;;;;5049425;28;20229;-51
2022/05/20 02:02:03;;;;;;;95.50;18.88;;;16.80;99.90;;;;;;5049072;28;20213;-51
2022/05/20 02:04:38;;;;;;;233.38;20.60;;;16.80;99.90;;;;;;5049657;28;20205;-51
2022/05/20 02:07:11;;;;;;;270.65;20.50;;;16.80;99.90;;;;;;5049502;28;20189;-51
2022/05/20 02:09:44;;;;;;;99.97;14.13;;;16.70;99.90;;;;;;5058497;28;20636;-51
2022/05/20 02:12:15;;;;;;;194.50;16.35;;;16.70;99.90;;;;;;5069131;28;20225;-51
2022/05/20 02:14:47;;;;;;;126.90;14.43;;;16.80;99.90;;;;;;5068797;28;20751;-51
2022/05/20 02:17:19;;;;;;;106.57;13.38;;;16.80;99.90;;;;;;5069594;28;20256;-51
2022/05/20 02:19:53;;;;;;;173.88;19.98;;;16.80;99.90;;;;;;5068364;28;20324;-51
2022/05/20 02:22:25;;;;;;;221.23;20.95;;;16.70;99.90;;;;;;5069167;28;20249;-51
2022/05/20 02:24:55;;;;;;;123.35;15.40;;;16.60;99.90;;;;;;5069301;28;20249;-51
2022/05/20 02:27:26;;;;;;;100.10;15.23;;;16.60;99.90;;;;;;5069709;28;20276;-50
2022/05/20 02:30:00;;;;;;;184.73;18.85;;;16.60;99.90;;;;;;5069118;28;20224;-51
2022/05/20 02:32:31;;;;;;;155.23;18.23;;;16.60;99.90;;;;;;5068688;28;20204;-51
2022/05/20 02:34:59;;;;;;;58.15;13.50;;;16.70;99.90;;;;;;5069201;28;20259;-51
2022/05/20 02:37:31;;;;;;;46.45;12.82;;;16.60;99.90;;;;;;5068693;28;20262;-51
2022/05/20 02:40:02;;;;;;;131.82;16.55;;;16.70;99.90;;;;;;5069350;28;20244;-50
2022/05/20 02:42:30;;;;;;;51.38;13.55;;;16.60;99.90;;;;;;5068778;28;20232;-51
2022/05/20 02:44:59;;;;;;;49.53;14.50;;;16.60;99.90;;;;;;5068747;28;20214;-51
2022/05/20 02:47:31;;;;;;;53.47;12.18;;;16.60;99.90;;;;;;5049277;28;20217;-50
2022/05/20 02:50:00;;;;;;;90.47;15.20;;;16.70;99.90;;;;;;5057974;28;20228;-51
2022/05/20 02:52:28;;;;;;;74.18;13.77;;;16.70;99.90;;;;;;5068375;28;20626;-51
2022/05/20 02:54:56;;;;;;;66.88;13.82;;;16.70;99.90;;;;;;5073023;28;20205;-51
2022/05/20 02:57:25;;;;;;;131.50;14.95;;;16.70;99.90;;;;;;5072479;28;20208;-51
2022/05/20 03:05:25;;;;;;;81.18;14.52;;;16.70;99.90;;;;;;5073043;28;20205;-51
2022/05/20 03:07:59;;;;;;;99.95;13.93;;;16.70;99.90;;;;;;5073104;28;20220;-51
2022/05/20 03:10:28;;;;;;;51.72;14.52;;;16.70;99.90;;;;;;5072421;28;20221;-51
2022/05/20 03:13:00;;;;;;;75.55;15.07;;;16.60;99.90;;;;;;5072341;28;20258;-51
2022/05/20 03:15:28;;;;;;;86.35;15.15;;;16.70;99.90;;;;;;5072568;28;20244;-51
2022/05/20 03:17:56;;;;;;;90.82;14.73;;;16.70;99.90;;;;;;5072610;28;20251;-51
2022/05/20 03:20:25;;;;;;;77.45;13.63;;;16.70;99.90;;;;;;5071145;28;20314;-53
2022/05/20 03:22:53;;;;;;;76.45;12.93;;;16.60;99.90;;;;;;5072460;28;20259;-52
2022/05/20 03:25:21;;;;;;;88.10;13.68;;;16.70;99.90;;;;;;5072601;28;20238;-51
2022/05/20 03:27:50;;;;;;;81.90;12.80;;;16.60;99.90;;;;;;5072909;28;20274;-51
2022/05/20 03:30:20;;;;;;;52.17;13.60;;;16.60;99.90;;;;;;5072063;28;20220;-51
2022/05/20 03:32:48;;;;;;;43.33;11.15;;;16.60;99.90;;;;;;5071962;28;20200;-52
2022/05/20 03:35:16;;;;;;;35.00;12.25;;;16.50;99.90;;;;;;5072472;28;20252;-51
2022/05/20 03:37:44;;;;;;;26.13;11.25;;;16.60;99.90;;;;;;5063343;28;20244;-51
2022/05/20 03:40:12;;;;;;;19.45;10.50;;;16.50;99.90;;;;;;5072410;28;20262;-51
2022/05/20 03:42:40;;;;;;;10.88;9.77;;;16.50;99.90;;;;;;5071143;28;20244;-51
2022/05/20 03:45:10;;;;;;;17.13;10.10;;;16.60;99.90;;;;;;5071940;28;20240;-51
2022/05/20 03:47:40;;;;;;;56.60;12.05;;;16.60;99.90;;;;;;5072250;28;20262;-50
2022/05/20 03:50:10;;;;;;;15.25;9.85;;;16.60;99.90;;;;;;5072067;28;20252;-51
2022/05/20 03:52:38;;;;;;;14.73;9.85;;;16.60;99.90;;;;;;5071610;28;20209;-51
2022/05/20 03:55:07;;;;;;;11.88;8.88;;;16.50;99.90;;;;;;5071270;28;20263;-51
2022/05/20 03:57:35;;;;;;;10.85;9.10;;;16.60;99.90;;;;;;5071857;28;20248;-51
2022/05/20 04:00:05;;;;;;;12.52;9.40;;;16.60;99.90;;;;;;5071175;28;20268;-51
2022/05/20 04:02:32;;;;;;;10.27;8.80;;;16.60;99.90;;;;;;5071251;28;20208;-51
2022/05/20 04:05:02;;;;;;;11.25;9.40;;;16.70;99.90;;;;;;5070464;28;20213;-51
2022/05/20 04:07:30;;;;;;;9.88;8.88;;;16.70;99.90;;;;;;5070661;28;20209;-51
2022/05/20 04:09:58;;;;;;;13.30;10.40;;;16.70;99.90;;;;;;5071257;28;20217;-51
2022/05/20 04:12:30;;;;;;;37.20;12.48;;;16.70;99.90;;;;;;5071393;28;20243;-51
2022/05/20 04:14:59;;;;;;;21.63;11.25;;;16.80;99.90;;;;;;5071527;28;20258;-51
2022/05/20 04:17:27;;;;;;;14.52;10.65;;;16.80;99.90;;;;;;5071473;28;20209;-51
2022/05/20 04:19:56;;;;;;;20.50;11.77;;;16.80;99.90;;;;;;5070491;28;20232;-50
2022/05/20 04:22:28;;;;;;;19.83;11.25;;;16.80;99.90;;;;;;5071050;28;20239;-51
2022/05/20 04:24:57;;;;;;;78.90;15.82;;;16.80;99.90;;;;;;5071351;28;20276;-51
2022/05/20 04:27:27;;;;;;;142.40;17.17;;;16.90;99.90;;;;;;5071135;28;20238;-52
2022/05/20 04:29:56;;;;;;;87.60;14.48;;;17.00;99.90;;;;;;5070395;28;20225;-50
2022/05/20 04:32:24;;;;;;;24.60;12.55;;;17.00;99.90;;;;;;5070229;28;20249;-51
2022/05/20 04:34:52;;;;;;;32.70;12.82;;;17.00;99.90;;;;;;5071208;28;20342;-51
2022/05/20 04:37:27;;;;;;;15.30;11.43;;;17.00;99.90;;;;;;5070581;28;20284;-51
2022/05/20 04:39:56;;;;;;;56.13;13.27;;;17.00;99.90;;;;;;5070829;28;20282;-51
2022/05/20 04:47:56;;;;;;;129.77;17.98;;;17.10;99.90;;;;;;5070962;28;20260;-50
2022/05/20 04:50:24;;;;;;;50.80;13.13;;;17.10;99.90;;;;;;5063411;28;20246;-51
2022/05/20 04:52:54;;;;;;;55.88;13.80;;;17.10;99.90;;;;;;5070127;28;20290;-51
2022/05/20 04:55:21;;;;;;;56.88;16.33;;;17.10;99.90;;;;;;5070238;28;20258;-51
2022/05/20 04:57:51;;;;;;;32.10;13.82;;;17.10;99.90;;;;;;5070698;28;20288;-51
2022/05/20 05:00:22;;;;;;;28.38;12.43;;;17.10;99.90;;;;;;5070149;28;20235;-50
2022/05/20 05:02:52;;;;;;;56.15;12.93;;;17.10;99.90;;;;;;5070312;28;20238;-50
2022/05/20 05:05:22;;;;;;;55.33;12.40;;;17.10;99.90;;;;;;5070184;28;20213;-50
2022/05/20 05:07:52;;;;;;;148.43;15.88;;;17.10;99.90;;;;;;5070204;28;20213;-50
2022/05/20 05:10:24;;;;;;;59.35;13.48;;;17.10;99.90;;;;;;5058446;28;20252;-51
2022/05/20 05:12:52;;;;;;;87.07;14.30;;;17.10;99.90;;;;;;5056187;28;20258;-51
2022/05/20 05:15:21;;;;;;;96.60;15.05;;;17.20;99.90;;;;;;5069473;28;20255;-51
2022/05/20 05:20:35;;;;;;;93.55;16.00;;;17.20;99.90;;;;;;5070329;28;20264;-50
2022/05/20 05:23:04;;;;;;;43.53;14.00;;;17.20;99.90;;;;;;5053568;28;20209;-51
2022/05/20 05:25:35;;;;;;;70.40;18.40;;;17.30;99.90;;;;;;5067090;28;20688;-51
2022/05/20 05:28:04;;;;;;;63.70;15.32;;;17.30;99.90;;;;;;5069747;28;20240;-50
2022/05/20 05:30:33;;;;;;;38.58;13.30;;;17.30;99.90;;;;;;5070020;28;20257;-51
2022/05/20 05:33:01;;;;;;;16.73;12.30;;;17.30;99.90;;;;;;5055126;28;20245;-51
2022/05/20 05:35:32;;;;;;;16.70;12.00;;;17.40;99.90;;;;;;5050241;28;20233;-50
2022/05/20 05:38:00;;;;;;;15.32;12.45;;;17.50;99.90;;;;;;5048355;28;20271;-51
2022/05/20 05:40:30;;;;;;;14.05;11.80;;;17.50;99.90;;;;;;5049750;28;20493;-51
2022/05/20 05:43:01;;;;;;;13.40;12.00;;;17.70;99.90;;;;;;5049287;28;20255;-50
2022/05/20 05:45:31;;;;;;;17.35;13.43;;;17.80;99.90;;;;;;5062052;28;20220;-51
2022/05/20 05:48:01;;;;;;;15.13;13.52;;;17.80;99.90;;;;;;5070132;28;20251;-51
2022/05/20 05:50:31;;;;;;;13.23;11.82;;;17.90;99.90;;;;;;5062508;28;20251;-51
2022/05/20 05:53:06;;;;;;;14.38;12.88;;;17.90;99.90;;;;;;5069400;28;20275;-50
2022/05/20 05:55:35;;;;;;;15.82;14.10;;;18.00;99.90;;;;;;5069349;28;20234;-51
2022/05/20 05:58:04;;;;;;;15.00;13.60;;;18.00;99.90;;;;;;5069763;28;20445;-50
2022/05/20 06:00:32;;;;;;;14.35;12.90;;;18.00;99.90;;;;;;5069164;28;20710;-50
2022/05/20 06:03:00;;;;;;;13.98;12.20;;;18.00;99.90;;;;;;5068978;28;20309;-50
2022/05/20 06:05:29;;;;;;;20.08;15.23;;;17.90;99.90;;;;;;5069536;28;20209;-51
2022/05/20 06:07:57;;;;;;;15.05;13.45;;;17.90;99.90;;;;;;5069438;28;20328;-51
2022/05/20 06:10:24;;;;;;;17.67;15.30;;;17.90;99.90;;;;;;5069232;28;20224;-51
2022/05/20 06:12:53;;;;;;;17.35;15.35;;;17.90;99.90;;;;;;5068972;28;20208;-51
2022/05/20 06:15:24;;;;;;;17.70;15.57;;;18.00;99.90;;;;;;5069236;28;20249;-51
2022/05/20 06:17:52;;;;;;;15.13;13.63;;;18.20;99.90;;;;;;5069803;28;20273;-51
2022/05/20 06:20:22;;;;;;;16.83;15.02;;;18.30;99.90;;;;;;5069441;28;20229;-51
2022/05/20 06:22:50;;;;;;;19.77;16.17;;;18.40;99.90;;;;;;5069095;28;20204;-51
2022/05/20 06:25:19;;;;;;;16.42;14.27;;;18.40;99.90;;;;;;5069464;28;20254;-51
2022/05/20 06:27:48;;;;;;;17.95;15.00;;;18.30;99.90;;;;;;5069936;28;20243;-51
2022/05/20 06:30:19;;;;;;;20.40;15.65;;;18.40;99.90;;;;;;5073163;28;20228;-50
2022/05/20 06:32:48;;;;;;;18.83;15.90;;;18.50;99.90;;;;;;5072867;28;20618;-51
2022/05/20 06:40:49;;;;;;;19.20;15.52;;;18.60;99.90;;;;;;5073213;28;20235;-50
2022/05/20 06:43:19;;;;;;;19.35;17.40;;;18.60;99.90;;;;;;5072177;28;20212;-51
2022/05/20 06:45:50;;;;;;;17.65;15.85;;;18.70;99.90;;;;;;5072522;28;20266;-51
2022/05/20 06:48:43;;;;;;;18.30;16.05;;;18.90;99.90;;;;;;5067775;28;20208;-50
2022/05/20 06:51:13;;;;;;;16.38;14.68;;;19.30;99.90;;;;;;5072207;28;20559;-51
2022/05/20 06:53:41;;;;;;;16.38;14.88;;;19.60;99.90;;;;;;5073047;28;20258;-50
2022/05/20 06:56:09;;;;;;;17.55;15.68;;;20.10;99.90;;;;;;5055816;28;20249;-50
2022/05/20 06:58:37;;;;;;;15.25;13.65;;;20.40;99.90;;;;;;5052978;28;20233;-51
2022/05/20 07:01:06;;;;;;;15.50;13.98;;;20.80;99.90;;;;;;5051659;28;20779;-51
2022/05/20 07:03:34;;;;;;;15.88;14.43;;;21.10;99.90;;;;;;5052179;28;20682;-51
2022/05/20 07:06:05;;;;;;;16.25;14.70;;;21.70;99.90;;;;;;5052522;28;20296;-51
2022/05/20 07:08:34;;;;;;;17.73;15.98;;;21.70;99.90;;;;;;5052912;28;20247;-51
2022/05/20 07:11:05;;;;;;;18.67;16.85;;;21.70;99.90;;;;;;5072547;28;20304;-50
2022/05/20 07:13:41;;;;;;;20.15;18.10;;;21.60;99.90;;;;;;5071977;28;20193;-51
2022/05/20 07:16:15;;;;;;;20.27;18.17;;;21.60;99.90;;;;;;5072832;28;20200;-51
2022/05/20 07:18:43;;;;;;;17.15;15.32;;;22.20;99.90;;;;;;5072375;28;20205;-51
2022/05/20 07:21:12;;;;;;;16.35;14.75;;;22.60;99.90;;;;;;5072453;28;20302;-51
2022/05/20 07:23:40;;;;;;;16.55;14.93;;;22.40;99.90;;;;;;5071536;28;20274;-51
2022/05/20 07:26:08;;;;;;;17.55;15.90;;;22.40;99.90;;;;;;5067896;28;20243;-51
2022/05/20 07:28:37;;;;;;;17.77;15.98;;;22.30;99.90;;;;;;5061767;28;20201;-51
2022/05/20 07:31:06;;;;;;;17.65;15.93;;;22.10;99.90;;;;;;5071960;28;20224;-51
2022/05/20 07:33:34;;;;;;;19.75;17.70;;;21.90;99.90;;;;;;5071525;28;20209;-51
2022/05/20 07:36:03;;;;;;;18.98;16.05;;;21.70;99.90;;;;;;5071416;28;20564;-51
2022/05/20 07:38:32;;;;;;;18.17;16.42;;;21.90;99.90;;;;;;5070224;28;20245;-50
2022/05/20 07:41:00;;;;;;;18.58;16.83;;;22.20;99.90;;;;;;5066714;28;20267;-52
2022/05/20 07:43:29;;;;;;;18.55;16.70;;;22.60;99.90;;;;;;5071205;28;20211;-52
2022/05/20 07:45:57;;;;;;;18.30;16.60;;;23.00;99.90;;;;;;5054634;28;20229;-51
2022/05/20 07:48:25;;;;;;;18.33;16.60;;;22.70;99.90;;;;;;5064997;28;20253;-52
2022/05/20 07:50:57;;;;;;;18.73;16.77;;;22.30;99.90;;;;;;5067972;28;20281;-52
2022/05/20 07:53:33;;;;;;;18.58;16.80;;;22.90;99.90;;;;;;5070914;28;20240;-52
2022/05/20 07:56:06;;;;;;;19.00;17.15;;;23.50;99.90;;;;;;5071924;28;20204;-52
2022/05/20 07:58:39;;;;;;;20.45;18.50;;;24.00;99.90;;;;;;5071692;28;20213;-52
2022/05/20 08:01:19;;;;;;;18.52;16.80;;;24.20;99.90;;;;;;5071238;28;20260;-51
2022/05/20 08:06:50;;;;;;;18.75;16.77;;;24.20;99.90;;;;;;5028770;28;20685;-52
2022/05/20 08:09:25;;;;;;;19.85;17.98;;;24.10;99.90;;;;;;5021430;28;20202;-52
2022/05/20 08:11:55;;;;;;;18.92;16.92;;;24.10;99.90;;;;;;5029658;28;20747;-51
2022/05/20 08:14:23;;;;;;;19.42;17.35;;;23.80;99.90;;;;;;5051235;28;20928;-51
2022/05/20 08:16:51;;;;;;;18.88;16.95;;;23.60;99.90;;;;;;5051093;28;20213;-52
2022/05/20 08:19:19;;;;;;;21.33;19.15;;;23.50;99.90;;;;;;5051503;28;20233;-51
2022/05/20 08:21:47;;;;;;;20.27;18.33;;;23.60;99.90;;;;;;5050521;28;20229;-51
2022/05/20 08:24:15;;;;;;;18.52;16.67;;;23.50;99.90;;;;;;5051150;28;20208;-51
2022/05/20 08:26:43;;;;;;;20.55;18.55;;;23.80;99.90;;;;;;5050704;28;20237;-51
2022/05/20 08:29:12;;;;;;;19.92;17.95;;;24.10;99.90;;;;;;5050843;28;20209;-51
2022/05/20 08:31:41;;;;;;;19.83;17.77;;;24.00;99.90;;;;;;5050683;28;20257;-51
2022/05/20 08:34:10;;;;;;;18.33;16.52;;;24.10;99.90;;;;;;5050380;28;20297;-51
2022/05/20 08:36:39;;;;;;;20.25;18.20;;;23.90;99.90;;;;;;5050223;28;20268;-51
2022/05/20 08:39:10;;;;;;;20.27;18.17;;;23.90;99.90;;;;;;5050614;28;20255;-51
2022/05/20 08:41:41;;;;;;;19.88;17.95;;;24.00;99.90;;;;;;5050600;28;20712;-51
2022/05/20 08:44:14;;;;;;;19.73;17.80;;;24.20;99.90;;;;;;5057516;28;20237;-51
2022/05/20 08:46:42;;;;;;;18.25;16.45;;;24.20;99.90;;;;;;5053439;28;20244;-51
2022/05/20 08:49:13;;;;;;;20.40;16.77;;;24.10;99.90;;;;;;5070837;28;20203;-51
2022/05/20 08:51:47;;;;;;;18.85;16.90;;;24.40;99.90;;;;;;5069662;28;20224;-51
2022/05/20 08:54:15;;;;;;;16.55;14.95;;;24.80;99.90;;;;;;5071216;28;20259;-51
2022/05/20 08:56:44;;;;;;;17.52;14.98;;;25.00;99.90;;;;;;5070872;28;20264;-51
2022/05/20 08:59:18;;;;;;;16.70;15.00;;;25.10;99.90;;;;;;5070907;28;20557;-52
2022/05/20 09:01:49;;;;;;;17.67;15.82;;;24.90;99.90;;;;;;5069834;28;20626;-51
2022/05/20 09:04:21;;;;;;;17.65;15.95;;;24.80;99.90;;;;;;5070715;28;20291;-52
2022/05/20 09:07:00;;;;;;;16.92;15.23;;;24.80;99.90;;;;;;5070810;28;20232;-51
2022/05/20 09:09:39;;;;;;;16.77;14.98;;;24.70;99.90;;;;;;5070693;28;20228;-51
2022/05/20 09:12:08;;;;;;;16.40;13.93;;;24.60;99.90;;;;;;5070394;28;20649;-51
2022/05/20 09:17:25;;;;;;;15.38;13.88;;;24.90;99.90;;;;;;5070140;28;20236;-52
2022/05/20 09:19:57;;;;;;;14.32;12.82;;;24.70;99.90;;;;;;5070045;28;20681;-51
2022/05/20 09:22:30;;;;;;;20.13;14.95;;;24.70;99.90;;;;;;5069549;28;20225;-52
2022/05/20 09:24:59;;;;;;;17.60;15.63;;;24.60;99.90;;;;;;5069981;28;20232;-51
2022/05/20 09:27:30;;;;;;;17.42;15.32;;;24.50;99.90;;;;;;5070414;28;20874;-51
2022/05/20 09:30:02;;;;;;;18.65;16.05;;;24.50;99.90;;;;;;5069770;28;20243;-51
2022/05/20 09:32:36;;;;;;;17.35;15.50;;;24.40;99.90;;;;;;5070605;28;20662;-51
2022/05/20 09:35:07;;;;;;;18.42;15.68;;;24.50;99.90;;;;;;5069648;28;20248;-52
2022/05/20 09:37:42;;;;;;;17.52;15.82;;;24.40;99.90;;;;;;5068393;28;20212;-51
2022/05/20 09:40:21;;;;;;;17.05;15.35;;;24.40;99.90;;;;;;5069828;28;20261;-51
2022/05/20 09:43:11;;;;;;;16.58;14.88;;;24.40;99.90;;;;;;5069042;28;20224;-50
2022/05/20 09:45:46;;;;;;;14.82;13.35;;;24.30;99.90;;;;;;5070208;28;20189;-51
2022/05/20 09:48:20;;;;;;;15.05;13.55;;;24.50;99.90;;;;;;5067502;28;20716;-51
2022/05/20 09:51:03;;;;;;;14.60;12.77;;;24.50;99.90;;;;;;5065216;28;20259;-51
2022/05/20 09:53:35;;;;;;;12.48;11.20;;;24.60;99.90;;;;;;5068820;28;20666;-51
2022/05/20 09:56:19;;;;;;;12.50;10.95;;;24.70;99.90;;;;;;5069904;28;20200;-50
2022/05/20 09:59:04;;;;;;;14.15;10.88;;;24.70;99.90;;;;;;5069583;28;20209;-51
2022/05/20 10:01:33;;;;;;;14.50;13.20;;;24.90;99.90;;;;;;5069599;28;20264;-51
2022/05/20 10:04:05;;;;;;;14.23;12.82;;;25.00;99.90;;;;;;5068779;28;20286;-51
2022/05/20 10:06:38;;;;;;;17.23;14.68;;;25.20;99.90;;;;;;5069622;28;20235;-51
2022/05/20 10:09:13;;;;;;;21.02;15.68;;;25.30;99.90;;;;;;5069464;28;20205;-51
2022/05/20 10:11:50;;;;;;;15.75;13.88;;;25.30;99.90;;;;;;5069449;28;20262;-52
2022/05/20 10:14:23;;;;;;;13.73;12.35;;;25.40;99.90;;;;;;5069177;28;20701;-51
2022/05/20 10:16:59;;;;;;;13.95;12.55;;;25.50;99.90;;;;;;5069198;28;20711;-51
2022/05/20 10:19:34;;;;;;;13.68;12.15;;;25.40;99.90;;;;;;5069289;28;20208;-51
2022/05/20 10:22:10;;;;;;;11.48;10.48;;;25.60;99.90;;;;;;5068823;28;20235;-51
2022/05/20 10:24:52;;;;;;;13.75;10.93;;;25.50;99.90;;;;;;5069391;28;20208;-51
2022/05/20 10:27:24;;;;;;;11.10;9.90;;;25.50;99.90;;;;;;5069154;28;20642;-51
2022/05/20 10:32:53;;;;;;;11.93;10.75;;;25.30;99.90;;;;;;5048186;28;20654;-51
2022/05/20 10:35:23;;;;;;;12.02;9.98;;;25.40;99.90;;;;;;5049411;28;20252;-51
2022/05/20 10:38:08;;;;;;;10.95;9.95;;;25.80;99.90;;;;;;5066044;28;20407;-51
2022/05/20 10:40:47;;;;;;;11.55;10.32;;;26.10;99.90;;;;;;5069044;28;20771;-51
2022/05/20 10:43:28;;;;;;;9.88;8.88;;;26.00;99.90;;;;;;5068610;28;20255;-51
2022/05/20 10:49:07;;;;;;;10.60;9.52;;;25.80;99.90;;;;;;5068597;28;20235;-51
2022/05/20 10:51:59;;;;;;;10.75;9.75;;;25.60;99.90;;;;;;5049033;28;20290;-51
2022/05/20 10:54:55;;;;;;;12.50;10.90;;;25.50;99.90;;;;;;5049015;28;20639;-51
2022/05/20 10:57:39;;;;;;;11.85;10.15;;;25.70;99.90;;;;;;5036320;28;20670;-51
2022/05/20 11:00:11;;;;;;;11.77;10.57;;;25.70;99.90;;;;;;5048801;28;20268;-51
2022/05/20 11:03:21;;;;;;;12.18;11.02;;;25.90;99.90;;;;;;5048456;28;20773;-52
2022/05/20 11:06:33;;;;;;;13.18;11.88;;;25.90;99.90;;;;;;5048711;28;20288;-52
2022/05/20 11:09:05;;;;;;;11.60;10.50;;;25.90;99.90;;;;;;5033959;28;20201;-51
2022/05/20 11:12:02;;;;;;;11.52;10.52;;;25.90;99.90;;;;;;5063329;28;20260;-51
2022/05/20 11:15:03;;;;;;;12.57;11.38;;;26.10;99.90;;;;;;5046083;28;20266;-52
2022/05/20 11:17:48;;;;;;;10.43;9.40;;;26.00;99.90;;;;;;5072081;28;20220;-51
2022/05/20 11:20:34;;;;;;;10.93;9.93;;;26.10;99.90;;;;;;5072101;28;20290;-51
2022/05/20 11:23:23;;;;;;;8.77;7.88;;;26.40;99.90;;;;;;5058851;28;20228;-51
2022/05/20 11:26:42;;;;;;;7.85;6.45;;;26.40;99.90;;;;;;5060365;28;20210;-52
2022/05/20 11:29:59;;;;;;;8.73;7.65;;;26.50;99.90;;;;;;5046414;28;20213;-52
2022/05/20 11:32:42;;;;;;;9.25;8.13;;;26.40;99.90;;;;;;5053130;28;20223;-52
2022/05/20 11:35:43;;;;;;;8.82;8.00;;;26.00;99.90;;;;;;5071584;28;20270;-52
2022/05/20 11:38:35;;;;;;;11.05;8.48;;;26.10;99.90;;;;;;5052024;28;20216;-52
2022/05/20 11:41:17;;;;;;;13.20;8.00;;;26.20;99.90;;;;;;5043080;28;20272;-52
2022/05/20 11:44:03;;;;;;;9.18;8.18;;;26.50;99.90;;;;;;5051271;28;20229;-52
2022/05/20 11:46:51;;;;;;;8.73;7.93;;;26.50;99.90;;;;;;5051566;28;20233;-51
2022/05/20 11:49:43;;;;;;;10.82;8.40;;;26.60;99.90;;;;;;5061922;28;20201;-52
2022/05/20 11:52:34;;;;;;;8.15;7.38;;;26.50;99.90;;;;;;5069110;28;20220;-52
2022/05/20 11:55:10;;;;;;;8.95;8.05;;;26.50;99.90;;;;;;5071680;28;20237;-51
2022/05/20 11:57:44;;;;;;;9.98;9.07;;;26.70;99.90;;;;;;5071702;28;20193;-52
2022/05/20 12:00:14;;;;;;;8.85;7.50;;;26.50;99.90;;;;;;5071519;28;20271;-52
2022/05/20 12:02:47;;;;;;;8.10;7.40;;;26.50;99.90;;;;;;5070897;28;20659;-51
2022/05/20 12:05:19;;;;;;;9.35;8.43;;;26.60;99.90;;;;;;5071646;28;20204;-52
2022/05/20 12:07:47;;;;;;;8.30;7.50;;;26.50;99.90;;;;;;5070916;28;20229;-52
2022/05/20 12:10:49;;;;;;;8.13;7.32;;;26.50;99.90;;;;;;5071260;28;20469;-52
2022/05/20 12:13:21;;;;;;;7.85;6.80;;;26.50;99.90;;;;;;5067256;28;20208;-52
2022/05/20 12:16:09;;;;;;;9.30;7.68;;;26.50;99.90;;;;;;5070908;28;20212;-52
2022/05/20 12:24:35;;;;;;;9.40;6.00;;;26.60;99.90;;;;;;5070767;28;20229;-51
2022/05/20 12:27:11;;;;;;;7.95;5.60;;;26.40;99.90;;;;;;5064792;28;20206;-52
2022/05/20 12:30:02;;;;;;;8.45;5.80;;;26.20;99.90;;;;;;5059905;28;20252;-52
2022/05/20 12:32:46;;;;;;;8.38;6.05;;;26.00;99.90;;;;;;5050190;28;20209;-52
2022/05/20 12:35:23;;;;;;;7.07;5.70;;;26.00;99.90;;;;;;5048568;28;20705;-52
2022/05/20 12:37:58;;;;;;;7.00;5.50;;;25.80;99.90;;;;;;5049117;28;20232;-51
2022/05/20 12:40:49;;;;;;;6.57;4.68;;;25.80;99.90;;;;;;5050089;28;20268;-52
2022/05/20 12:43:18;;;;;;;8.77;5.00;;;25.80;99.90;;;;;;5053302;28;20200;-52
2022/05/20 12:45:52;;;;;;;6.72;5.10;;;26.00;99.90;;;;;;5069916;28;20236;-52
2022/05/20 12:48:25;;;;;;;8.95;4.50;;;26.10;99.90;;;;;;5069966;28;20197;-52
2022/05/20 12:51:01;;;;;;;8.30;5.18;;;26.10;99.90;;;;;;5059055;28;20229;-51
2022/05/20 12:53:31;;;;;;;7.70;4.90;;;25.90;99.90;;;;;;5052501;28;20264;-52
2022/05/20 12:56:00;;;;;;;8.48;5.05;;;25.90;99.90;;;;;;5049723;28;20251;-51
2022/05/20 12:58:32;;;;;;;6.95;4.50;;;25.80;99.90;;;;;;5050457;28;20256;-52
2022/05/20 13:01:04;;;;;;;5.78;4.53;;;26.00;99.90;;;;;;5048638;28;20279;-52
2022/05/20 13:03:37;;;;;;;7.50;5.03;;;26.00;99.90;;;;;;5068705;28;20209;-52
2022/05/20 13:06:14;;;;;;;9.10;5.28;;;26.00;99.90;;;;;;5069689;28;20299;-52
2022/05/20 13:08:46;;;;;;;5.45;4.80;;;26.10;99.90;;;;;;5078876;28;20200;-51
2022/05/20 13:11:16;;;;;;;7.88;5.35;;;26.20;99.90;;;;;;5050606;28;20239;-52
2022/05/20 13:13:47;;;;;;;8.68;4.72;;;26.30;99.90;;;;;;5070198;28;20970;-52
2022/05/20 13:16:16;;;;;;;7.55;5.00;;;26.50;99.90;;;;;;5069781;28;20220;-52
2022/05/20 13:18:57;;;;;;;7.03;4.90;;;26.50;99.90;;;;;;5070393;28;20209;-51
2022/05/20 13:21:27;;;;;;;9.23;5.35;;;26.50;99.90;;;;;;5070548;28;20232;-52
2022/05/20 13:23:55;;;;;;;7.78;5.18;;;26.60;99.90;;;;;;5070060;28;20256;-52
2022/05/20 13:26:27;;;;;;;9.52;5.75;;;26.50;99.90;;;;;;5052587;28;20679;-52
2022/05/20 13:29:09;;;;;;;7.70;5.40;;;26.30;99.90;;;;;;5049699;28;20685;-52
2022/05/20 13:31:37;;;;;;;6.28;5.68;;;26.00;99.90;;;;;;5050151;28;20314;-52
2022/05/20 13:34:05;;;;;;;8.80;5.85;;;25.80;99.90;;;;;;5049143;28;20208;-51
2022/05/20 13:36:38;;;;;;;8.27;5.72;;;25.60;99.90;;;;;;5048998;28;20233;-52